Time;durP1;ratioP1;P1;durP2;ratioP2;P2;SDS_P1;SDS_P2;PMS_P1;PMS_P2;Temp;Humidity;BMP_temperature;BMP_pressure;BME280_temperature;BME280_humidity;BME280_pressure;Samples;Min_cycle;Max_cycle;Signal;HPM_P1;HPM_P2
2021/05/18 00:00:48;;;;;;;17.13;5.53;;;9.90;99.90;;;-145.59;100.00;63944.34;5071793;28;20445;-70
2021/05/18 00:03:17;;;;;;;9.70;4.28;;;9.90;99.90;;;-145.59;100.00;63944.34;5071442;28;20041;-71
2021/05/18 00:05:58;;;;;;;11.45;4.80;;;9.90;99.90;;;-145.59;100.00;63944.34;5054973;28;20032;-69
2021/05/18 00:08:26;;;;;;;17.33;5.22;;;10.00;99.90;;;-145.59;100.00;63944.34;5071677;28;20056;-70
2021/05/18 00:13:54;;;;;;;12.10;5.13;;;10.00;99.90;;;-145.59;100.00;63944.34;5072360;28;20047;-68
2021/05/18 00:16:20;;;;;;;17.63;5.25;;;10.00;99.90;;;-145.59;100.00;63944.34;5071639;28;20035;-69
2021/05/18 00:18:46;;;;;;;10.90;5.18;;;10.00;99.90;;;-145.59;100.00;63944.34;5071756;28;20074;-71
2021/05/18 00:21:13;;;;;;;7.85;4.25;;;9.90;99.90;;;-145.59;100.00;63944.34;5054700;28;20033;-71
2021/05/18 00:23:39;;;;;;;16.33;4.85;;;10.00;99.90;;;-145.59;100.00;63944.34;5071412;28;20052;-68
2021/05/18 00:26:08;;;;;;;9.73;4.47;;;10.00;99.90;;;-145.59;100.00;63944.34;5072546;28;20037;-63
2021/05/18 00:28:33;;;;;;;14.52;5.85;;;10.00;99.90;;;-145.59;100.00;63944.34;5071681;28;20036;-64
2021/05/18 00:30:59;;;;;;;7.88;4.20;;;10.00;99.90;;;-145.59;100.00;63944.34;5071175;28;20039;-64
2021/05/18 00:33:25;;;;;;;16.33;5.78;;;10.00;99.90;;;-145.59;100.00;63944.34;5054512;28;20101;-67
2021/05/18 00:35:51;;;;;;;11.98;5.43;;;10.10;99.90;;;-145.59;100.00;63944.34;5034963;28;20118;-70
2021/05/18 00:38:19;;;;;;;13.50;6.15;;;10.10;99.90;;;-145.59;100.00;63944.34;5038726;28;20045;-69
2021/05/18 00:40:46;;;;;;;14.98;5.40;;;10.10;99.90;;;-145.59;100.00;63944.34;5054874;28;20391;-71
2021/05/18 00:43:13;;;;;;;18.88;5.97;;;10.10;99.90;;;-145.59;100.00;63944.34;5038564;28;20096;-68
2021/05/18 00:45:43;;;;;;;15.35;6.10;;;10.20;99.90;;;-145.59;100.00;63944.34;5055263;28;20037;-70
2021/05/18 00:48:10;;;;;;;15.20;5.35;;;10.20;99.90;;;-145.59;100.00;63944.34;5054796;28;20071;-70
2021/05/18 00:50:41;;;;;;;13.70;6.07;;;10.30;99.90;;;-145.59;100.00;63944.34;5054873;28;20037;-71
2021/05/18 00:53:07;;;;;;;14.20;5.47;;;10.30;99.90;;;-145.59;100.00;63944.34;5054868;28;20025;-71
2021/05/18 00:55:42;;;;;;;10.80;5.63;;;10.40;99.90;;;-145.59;100.00;63944.34;5038288;28;20041;-69
2021/05/18 01:01:20;;;;;;;9.60;5.10;;;10.40;99.90;;;-145.59;100.00;63944.34;5041058;28;20056;-68
2021/05/18 01:03:49;;;;;;;12.73;6.35;;;10.50;99.90;;;-145.59;100.00;63944.34;5054724;28;20057;-71
2021/05/18 01:09:00;;;;;;;12.93;5.43;;;10.60;99.90;;;-145.59;100.00;63944.34;5054622;28;20170;-71
2021/05/18 01:11:30;;;;;;;13.95;6.13;;;10.60;99.90;;;-145.59;100.00;63944.34;5054283;28;20084;-71
2021/05/18 01:14:03;;;;;;;10.80;5.90;;;10.70;99.90;;;-145.59;100.00;63944.34;5054604;28;20049;-70
2021/05/18 01:16:34;;;;;;;14.25;6.28;;;10.70;99.90;;;-145.59;100.00;63944.34;5038628;28;20407;-72
2021/05/18 01:19:01;;;;;;;13.45;6.40;;;10.80;99.90;;;-145.59;100.00;63944.34;5037835;28;20033;-70
2021/05/18 01:21:28;;;;;;;12.32;5.97;;;10.80;99.90;;;-145.59;100.00;63944.34;5021045;28;20040;-68
2021/05/18 01:23:54;;;;;;;15.55;6.10;;;10.90;99.90;;;-145.59;100.00;63944.34;5054254;28;20498;-69
2021/05/18 01:26:21;;;;;;;18.23;6.95;;;10.90;99.90;;;-145.59;100.00;63944.34;5054468;28;20029;-69
2021/05/18 01:28:47;;;;;;;19.80;7.45;;;11.00;99.90;;;-145.59;100.00;63944.34;5055604;28;20036;-71
2021/05/18 01:31:20;;;;;;;15.18;7.07;;;11.00;99.90;;;-145.59;100.00;63944.34;5054122;28;20022;-70
2021/05/18 01:33:47;;;;;;;14.90;6.35;;;11.00;99.90;;;-145.59;100.00;63944.34;5057925;28;20064;-68
2021/05/18 01:36:15;;;;;;;18.50;5.70;;;11.10;99.90;;;-145.59;100.00;63944.34;5057471;28;20368;-70
2021/05/18 01:38:52;;;;;;;12.23;5.80;;;11.10;99.90;;;-145.59;100.00;63944.34;5073929;28;20115;-68
2021/05/18 01:44:05;;;;;;;19.25;6.57;;;11.10;99.90;;;-145.59;100.00;63944.34;5074315;28;20129;-63
2021/05/18 01:46:31;;;;;;;23.35;7.50;;;11.10;99.90;;;-145.59;100.00;63944.34;5074932;28;20133;-63
2021/05/18 01:49:07;;;;;;;14.90;6.28;;;11.20;99.90;;;-145.59;100.00;63944.34;5056254;28;20029;-64
2021/05/18 01:51:47;;;;;;;13.32;7.05;;;11.10;99.90;;;-145.59;100.00;63944.34;5073532;28;20047;-63
2021/05/18 01:54:28;;;;;;;18.83;6.68;;;11.10;99.90;;;-145.59;100.00;63944.34;5073571;28;20033;-64
2021/05/18 01:59:30;;;;;;;13.70;6.95;;;11.20;99.90;;;-145.59;100.00;63944.34;5075092;28;20044;-64
2021/05/18 02:02:01;;;;;;;12.77;7.18;;;11.20;99.90;;;-145.59;100.00;63944.34;5073606;28;20032;-62
2021/05/18 02:04:30;;;;;;;12.63;6.13;;;11.20;99.90;;;-145.59;100.00;63944.34;5073126;28;20449;-60
2021/05/18 02:06:56;;;;;;;14.73;7.10;;;11.20;99.90;;;-145.59;100.00;63944.34;5073479;28;20029;-61
2021/05/18 02:09:22;;;;;;;21.13;8.73;;;11.10;99.90;;;-145.59;100.00;63944.34;5073241;28;20025;-60
2021/05/18 02:11:49;;;;;;;16.73;7.57;;;11.10;99.90;;;-145.59;100.00;63944.34;5056646;28;20040;-65
2021/05/18 02:14:37;;;;;;;17.48;7.45;;;11.00;99.90;;;-145.59;100.00;63944.34;5073201;28;20520;-68
2021/05/18 02:20:13;;;;;;;17.85;7.57;;;11.00;99.90;;;-145.59;100.00;63944.34;5073092;28;20036;-63
2021/05/18 02:25:27;;;;;;;19.75;7.40;;;11.10;99.90;;;-145.59;100.00;63944.34;5073812;28;20067;-65
2021/05/18 02:27:56;;;;;;;20.88;7.47;;;11.10;99.90;;;-145.59;100.00;63944.34;5074362;28;20036;-62
2021/05/18 02:30:24;;;;;;;19.13;8.98;;;11.10;99.90;;;-145.59;100.00;63944.34;5073121;28;20157;-64
2021/05/18 02:32:50;;;;;;;14.23;8.00;;;11.10;99.90;;;-145.59;100.00;63944.34;5056231;28;20086;-66
2021/05/18 02:35:17;;;;;;;21.45;8.68;;;11.10;99.90;;;-145.59;100.00;63944.34;5073996;28;20083;-62
2021/05/18 02:37:44;;;;;;;16.95;7.82;;;11.10;99.90;;;-145.59;100.00;63944.34;5074298;28;20390;-66
2021/05/18 02:40:22;;;;;;;18.65;7.40;;;11.20;99.90;;;-145.59;100.00;63944.34;5073057;28;20039;-66
2021/05/18 02:42:49;;;;;;;16.13;7.90;;;11.20;99.90;;;-145.59;100.00;63944.34;5072514;28;20047;-66
2021/05/18 02:45:28;;;;;;;19.45;7.97;;;11.20;99.90;;;-145.59;100.00;63944.34;5072749;28;20061;-63
2021/05/18 02:50:40;;;;;;;;;;;11.20;99.90;;;-145.59;100.00;63944.34;5073732;28;20124;-63
2021/05/18 02:53:06;;;;;;;13.27;7.22;;;11.20;99.90;;;-145.59;100.00;63944.34;5072585;28;19970;-60
2021/05/18 02:55:40;;;;;;;14.43;7.20;;;11.20;99.90;;;-145.59;100.00;63944.34;5055846;28;20111;-62
2021/05/18 02:58:08;;;;;;;;;;;11.20;99.90;;;-145.59;100.00;63944.34;5073944;28;20036;-62
2021/05/18 03:00:35;;;;;;;14.05;7.13;;;11.20;99.90;;;-145.59;100.00;63944.34;5055919;28;20006;-61
2021/05/18 03:03:02;;;;;;;13.63;7.88;;;11.30;99.90;;;-145.59;100.00;63944.34;5055470;28;20039;-61
2021/05/18 03:05:28;;;;;;;13.77;8.60;;;11.30;99.90;;;-145.59;100.00;63944.34;5073545;28;20059;-68
2021/05/18 03:07:54;;;;;;;12.80;8.52;;;11.30;99.90;;;-145.59;100.00;63944.34;5055551;28;20487;-65
2021/05/18 03:10:21;;;;;;;14.45;6.85;;;11.40;99.90;;;-145.59;100.00;63944.34;5072147;28;20017;-65
2021/05/18 03:12:48;;;;;;;15.15;8.88;;;11.40;99.90;;;-145.59;100.00;63944.34;5071980;28;20406;-67
2021/05/18 03:15:15;;;;;;;13.52;7.63;;;11.40;99.90;;;-145.59;100.00;63944.34;5072342;28;20390;-67
2021/05/18 03:17:42;;;;;;;19.42;8.65;;;11.40;99.90;;;-145.59;100.00;63944.34;5055620;28;20063;-67
2021/05/18 03:20:14;;;;;;;16.65;8.10;;;11.50;99.90;;;-145.59;100.00;63944.34;5072317;28;20516;-67
2021/05/18 03:22:42;;;;;;;24.40;9.65;;;11.50;99.90;;;-145.59;100.00;63944.34;5072386;28;20422;-67
2021/05/18 03:25:09;;;;;;;17.17;8.98;;;11.50;99.90;;;-145.59;100.00;63944.34;5072239;28;20104;-65
2021/05/18 03:27:36;;;;;;;17.17;10.05;;;11.50;99.90;;;-145.59;100.00;63944.34;5055558;28;20116;-67
2021/05/18 03:30:54;;;;;;;13.77;10.18;;;11.50;99.90;;;-145.59;100.00;63944.34;5072476;28;20086;-65
2021/05/18 03:35:35;;;;;;;15.23;8.95;;;11.50;99.90;;;-145.59;100.00;63944.34;5072267;28;20064;-64
2021/05/18 03:38:08;;;;;;;20.80;9.75;;;11.50;99.90;;;-145.59;100.00;63944.34;5071748;28;20123;-67
2021/05/18 03:40:36;;;;;;;16.25;9.48;;;11.50;99.90;;;-145.59;100.00;63944.34;5073022;28;20033;-68
2021/05/18 03:43:20;;;;;;;33.15;8.23;;;11.40;99.90;;;-145.59;100.00;63944.34;5056108;28;20032;-66
2021/05/18 03:45:52;;;;;;;14.55;7.88;;;11.40;99.90;;;-145.59;100.00;63944.34;5072654;28;20024;-63
2021/05/18 04:04:30;;;;;;;15.70;6.32;;;11.20;99.90;;;-145.59;100.00;63944.34;5072463;28;20513;-63
2021/05/18 04:18:03;;;;;;;10.43;6.43;;;11.20;99.90;;;-145.59;100.00;63944.34;5075987;28;20048;-63
2021/05/18 04:52:31;;;;;;;9.60;6.63;;;11.60;99.90;;;-145.59;100.00;63944.34;5061696;28;20079;-64
2021/05/18 05:08:08;;;;;;;17.48;8.88;;;11.80;99.90;;;-145.59;100.00;63944.34;5060982;28;20478;-60
2021/05/18 05:15:40;;;;;;;14.02;6.60;;;11.90;99.90;;;-145.59;100.00;63944.34;5074738;28;20491;-60
2021/05/18 05:18:06;;;;;;;14.88;8.30;;;11.90;99.90;;;-145.59;100.00;63944.34;5074364;28;20437;-61
2021/05/18 05:20:32;;;;;;;17.17;8.07;;;12.00;99.90;;;-145.59;100.00;63944.34;5074161;28;20033;-60
2021/05/18 05:22:58;;;;;;;18.83;8.10;;;12.10;99.90;;;-145.59;100.00;63944.34;5073000;28;20032;-61
2021/05/18 05:25:25;;;;;;;10.18;7.72;;;12.20;99.90;;;-145.59;100.00;63944.34;5074138;28;20032;-61
2021/05/18 05:27:51;;;;;;;11.70;7.72;;;12.30;99.90;;;-145.59;100.00;63944.34;5073971;28;20036;-61
2021/05/18 05:30:18;;;;;;;12.45;6.85;;;12.30;99.90;;;-145.59;100.00;63944.34;5074109;28;20058;-62
2021/05/18 05:32:44;;;;;;;9.23;6.03;;;12.30;99.90;;;-145.59;100.00;63944.34;5057235;28;20504;-61
2021/05/18 05:35:11;;;;;;;10.38;7.07;;;12.40;99.90;;;-145.59;100.00;63944.34;5073994;28;20456;-61
2021/05/18 05:37:38;;;;;;;13.68;7.35;;;12.40;99.90;;;-145.59;100.00;63944.34;5057690;28;20116;-61
2021/05/18 05:40:06;;;;;;;11.30;8.85;;;12.50;99.90;;;-145.59;100.00;63944.34;5057219;28;20037;-61
2021/05/18 05:42:32;;;;;;;15.70;8.50;;;12.70;99.90;;;-145.59;100.00;63944.34;5057035;28;20086;-61
2021/05/18 05:44:58;;;;;;;11.85;8.27;;;13.10;99.90;;;-145.59;100.00;63944.34;5073810;28;20063;-63
2021/05/18 05:47:24;;;;;;;8.65;5.53;;;14.30;99.90;;;-145.59;100.00;63944.34;5073966;28;20101;-64
2021/05/18 05:49:50;;;;;;;9.50;5.82;;;15.90;99.90;;;-145.59;100.00;63944.34;5073929;28;20455;-62
2021/05/18 05:52:20;;;;;;;10.35;5.15;;;16.90;99.90;;;-145.59;100.00;63944.34;5056792;28;20066;-62
2021/05/18 05:54:48;;;;;;;7.93;5.22;;;17.50;99.90;;;-145.59;100.00;63944.34;5057618;28;20028;-64
2021/05/18 05:57:14;;;;;;;10.38;5.07;;;18.10;99.90;;;-145.59;100.00;63944.34;5073958;28;20486;-67
2021/05/18 05:59:40;;;;;;;9.30;5.35;;;19.40;99.90;;;-145.59;100.00;63944.34;5057169;28;20043;-64
2021/05/18 06:02:06;;;;;;;9.20;5.22;;;21.00;99.90;;;-145.59;100.00;63944.34;5073644;28;20035;-66
2021/05/18 06:04:32;;;;;;;9.63;4.07;;;22.60;97.70;;;-145.59;100.00;63944.34;5074600;28;20040;-65
2021/05/18 06:06:59;;;;;;;9.70;4.90;;;24.10;95.70;;;-145.59;100.00;63944.34;5056646;28;20025;-64
2021/05/18 06:09:25;;;;;;;9.27;4.95;;;25.50;93.60;;;-145.59;100.00;63944.34;5073389;28;20509;-64
2021/05/18 06:12:01;;;;;;;5.25;2.90;;;26.90;91.30;;;-145.59;100.00;63944.34;5056614;28;20043;-67
2021/05/18 06:49:40;;;;;;;5.82;2.78;;;29.20;69.40;;;-145.59;100.00;63944.34;5074258;28;20123;-71
2021/05/18 06:52:06;;;;;;;5.88;2.13;;;29.50;68.60;;;-145.59;100.00;63944.34;5074087;28;20033;-71
2021/05/18 06:54:32;;;;;;;2.83;2.00;;;30.20;67.70;;;-145.59;100.00;63944.34;5073932;28;20041;-71
2021/05/18 06:57:02;;;;;;;3.20;2.08;;;31.30;67.90;;;-145.59;100.00;63944.34;5073315;28;20025;-70
2021/05/18 07:01:57;;;;;;;3.97;1.55;;;33.40;64.80;;;-145.59;100.00;63944.34;5073325;28;20145;-73
2021/05/18 07:04:24;;;;;;;4.68;1.85;;;34.10;62.10;;;-145.59;100.00;63944.34;5072965;28;20064;-71
2021/05/18 07:07:12;;;;;;;3.72;2.00;;;33.80;61.10;;;-145.59;100.00;63944.34;5056220;28;20029;-70
2021/05/18 07:09:37;;;;;;;3.25;2.33;;;32.80;60.80;;;-145.59;100.00;63944.34;5072559;28;20032;-68
2021/05/18 07:12:04;;;;;;;4.82;2.22;;;31.80;62.00;;;-145.59;100.00;63944.34;5071974;28;20036;-69
2021/05/18 07:14:29;;;;;;;5.25;2.30;;;30.90;63.20;;;-145.59;100.00;63944.34;5072157;28;20067;-69
2021/05/18 07:16:55;;;;;;;5.28;2.45;;;30.20;64.20;;;-145.59;100.00;63944.34;5072063;28;20033;-70
2021/05/18 07:19:21;;;;;;;3.53;2.20;;;29.60;64.70;;;-145.59;100.00;63944.34;5038760;28;20063;-72
2021/05/18 07:21:47;;;;;;;3.08;1.80;;;28.90;65.60;;;-145.59;100.00;63944.34;5055660;28;20136;-68
2021/05/18 07:24:19;;;;;;;4.10;2.35;;;28.10;65.70;;;-145.59;100.00;63944.34;5071984;28;20131;-71
2021/05/18 07:26:45;;;;;;;3.55;2.58;;;27.30;68.20;;;-145.59;100.00;63944.34;5072084;28;20029;-66
2021/05/18 07:29:12;;;;;;;5.13;2.55;;;26.60;69.50;;;-145.59;100.00;63944.34;5039112;28;20086;-69
2021/05/18 07:31:38;;;;;;;4.25;2.00;;;25.80;68.30;;;-145.59;100.00;63944.34;5088659;28;20025;-72
2021/05/18 07:34:04;;;;;;;4.45;2.40;;;25.20;70.30;;;-145.59;100.00;63944.34;5072096;28;20036;-71
2021/05/18 07:36:30;;;;;;;2.22;1.90;;;25.00;73.50;;;-145.59;100.00;63944.34;5072169;28;20035;-71
2021/05/18 07:38:56;;;;;;;5.47;1.90;;;25.40;74.50;;;-145.59;100.00;63944.34;5055023;28;20424;-70
2021/05/18 07:41:22;;;;;;;2.40;2.00;;;25.90;73.10;;;-145.59;100.00;63944.34;5055271;28;20090;-71
2021/05/18 07:43:48;;;;;;;4.28;2.20;;;26.20;72.30;;;-145.59;100.00;63944.34;5055283;28;20421;-70
2021/05/18 07:46:19;;;;;;;5.75;2.38;;;26.40;72.70;;;-145.59;100.00;63944.34;5071418;28;20111;-70
2021/05/18 07:59:46;;;;;;;5.68;2.75;;;26.10;72.40;;;-145.59;100.00;63944.34;5072295;28;20525;-71
2021/05/18 08:07:41;;;;;;;6.25;2.47;;;28.00;71.80;;;-145.59;100.00;63944.34;5073222;28;20102;-71
2021/05/18 08:10:18;;;;;;;3.00;1.98;;;30.00;69.50;;;-145.59;100.00;63944.34;5055026;28;20048;-69
2021/05/18 08:12:44;;;;;;;2.85;1.80;;;31.50;69.80;;;-145.59;100.00;63944.34;5040997;28;20071;-67
2021/05/18 08:18:16;;;;;;;6.50;2.20;;;34.10;64.10;;;-145.59;100.00;63944.34;5072097;28;20135;-69
2021/05/18 10:34:38;;;;;;;7.05;3.88;;;27.60;64.40;;;-145.59;100.00;63944.34;5073067;28;20487;-73
2021/05/18 10:37:36;;;;;;;7.55;4.72;;;27.70;64.70;;;-145.59;100.00;63944.34;5089790;28;20491;-73
2021/05/18 10:40:36;;;;;;;4.75;3.80;;;28.10;65.20;;;-145.59;100.00;63944.34;5073105;28;20071;-72
2021/05/18 10:43:10;;;;;;;6.15;4.05;;;28.70;63.20;;;-145.59;100.00;63944.34;5062348;28;20121;-75
2021/05/18 10:46:03;;;;;;;4.68;3.78;;;29.90;63.20;;;-145.59;100.00;63944.34;5073144;28;20082;-74
2021/05/18 10:48:33;;;;;;;4.93;4.20;;;30.50;60.50;;;-145.59;100.00;63944.34;5066803;28;20098;-74
2021/05/18 10:51:34;;;;;;;6.45;3.80;;;30.20;62.10;;;-145.59;100.00;63944.34;5072956;28;20127;-72
2021/05/18 10:54:23;;;;;;;4.07;3.47;;;29.90;59.90;;;-145.59;100.00;63944.34;5051176;28;20044;-72
2021/05/18 10:56:55;;;;;;;6.38;3.17;;;29.20;61.90;;;-145.59;100.00;63944.34;5073291;28;20036;-72
2021/05/18 10:59:22;;;;;;;5.13;3.30;;;28.70;63.80;;;-145.59;100.00;63944.34;5074074;28;20391;-71
2021/05/18 11:01:49;;;;;;;7.22;3.33;;;28.00;62.00;;;-145.59;100.00;63944.34;5072916;28;20040;-68
2021/05/18 11:04:17;;;;;;;4.55;3.40;;;27.30;62.90;;;-145.59;100.00;63944.34;5072713;28;20483;-71
2021/05/18 11:06:57;;;;;;;5.40;3.78;;;26.50;64.40;;;-145.59;100.00;63944.34;5073983;28;20502;-71
2021/05/18 11:09:25;;;;;;;5.70;3.60;;;25.90;64.00;;;-145.59;100.00;63944.34;5073641;28;20037;-70
2021/05/18 11:12:10;;;;;;;5.60;3.20;;;25.70;67.50;;;-145.59;100.00;63944.34;5072922;28;20036;-68
2021/05/18 11:14:46;;;;;;;5.72;3.22;;;25.50;68.60;;;-145.59;100.00;63944.34;5075039;28;20035;-73
2021/05/18 11:17:34;;;;;;;4.05;3.05;;;25.30;68.20;;;-145.59;100.00;63944.34;5089548;28;20028;-72
2021/05/18 11:20:06;;;;;;;4.40;2.80;;;25.40;68.10;;;-145.59;100.00;63944.34;5073211;28;20047;-70
2021/05/18 11:26:07;;;;;;;5.82;4.00;;;24.90;66.40;;;-145.59;100.00;63944.34;5074104;28;20036;-71
2021/05/18 11:28:49;;;;;;;6.22;3.58;;;24.50;67.60;;;-145.59;100.00;63944.34;5072461;28;20042;-69
2021/05/18 11:31:24;;;;;;;6.18;3.10;;;24.20;70.00;;;-145.59;100.00;63944.34;5072407;28;20033;-69
2021/05/18 11:34:04;;;;;;;6.25;4.03;;;23.80;68.10;;;-145.59;100.00;63944.34;5073431;28;20087;-71
2021/05/18 11:36:40;;;;;;;4.82;4.00;;;23.60;70.50;;;-145.59;100.00;63944.34;5055893;28;20052;-72
2021/05/18 11:39:14;;;;;;;7.18;3.10;;;23.30;70.90;;;-145.59;100.00;63944.34;5073338;28;20387;-74
2021/05/18 11:41:42;;;;;;;;;;;23.00;71.10;;;-145.59;100.00;63944.34;5074189;28;20063;-71
2021/05/18 11:44:13;;;;;;;5.75;2.95;;;22.90;70.80;;;-145.59;100.00;63944.34;5073726;28;19923;-70
2021/05/18 11:46:51;;;;;;;5.38;3.55;;;22.80;72.10;;;-145.59;100.00;63944.34;5072311;28;20040;-72
2021/05/18 11:49:19;;;;;;;7.28;3.83;;;22.60;72.80;;;-145.59;100.00;63944.34;5072957;28;20021;-72
2021/05/18 11:51:51;;;;;;;4.35;2.65;;;22.30;73.50;;;-145.59;100.00;63944.34;5072111;28;20556;-71
2021/05/18 11:54:20;;;;;;;4.30;3.50;;;22.20;72.80;;;-145.59;100.00;63944.34;5072120;28;20491;-70
2021/05/18 11:56:47;;;;;;;5.78;3.40;;;21.90;72.90;;;-145.59;100.00;63944.34;5072011;28;20036;-73
2021/05/18 11:59:21;;;;;;;5.20;3.38;;;21.70;74.90;;;-145.59;100.00;63944.34;5071877;28;20043;-70
2021/05/18 12:01:56;;;;;;;7.25;3.60;;;21.60;74.20;;;-145.59;100.00;63944.34;5072407;28;20390;-72
2021/05/18 12:04:24;;;;;;;7.90;3.65;;;21.50;75.50;;;-145.59;100.00;63944.34;5072882;28;20047;-72
2021/05/18 12:06:58;;;;;;;5.38;3.40;;;21.40;77.10;;;-145.59;100.00;63944.34;5071929;28;20037;-69
2021/05/18 12:09:25;;;;;;;6.10;3.90;;;21.60;76.90;;;-145.59;100.00;63944.34;5071737;28;20062;-70
2021/05/18 12:12:07;;;;;;;5.47;3.35;;;21.70;76.80;;;-145.59;100.00;63944.34;5073633;28;20100;-69
2021/05/18 12:14:42;;;;;;;6.68;4.00;;;21.70;74.90;;;-145.59;100.00;63944.34;5073069;28;20036;-69
2021/05/18 12:17:08;;;;;;;7.25;3.63;;;21.70;75.10;;;-145.59;100.00;63944.34;5071949;28;20046;-70
2021/05/18 12:19:38;;;;;;;5.63;3.70;;;21.70;74.10;;;-145.59;100.00;63944.34;5073294;28;20036;-71
2021/05/18 12:22:05;;;;;;;7.43;4.50;;;21.50;75.60;;;-145.59;100.00;63944.34;5072066;28;20032;-69
2021/05/18 12:24:37;;;;;;;7.32;3.35;;;21.40;77.20;;;-145.59;100.00;63944.34;5073062;28;20556;-70
2021/05/18 12:27:05;;;;;;;6.63;3.75;;;21.30;75.70;;;-145.59;100.00;63944.34;5072294;28;20504;-72
2021/05/18 12:29:44;;;;;;;9.07;4.60;;;21.10;75.50;;;-145.59;100.00;63944.34;5073305;28;20171;-71
2021/05/18 12:32:28;;;;;;;9.13;3.83;;;20.90;75.10;;;-145.59;100.00;63944.34;5073019;28;20036;-72
2021/05/18 12:35:03;;;;;;;7.63;3.60;;;20.70;75.40;;;-145.59;100.00;63944.34;5075634;28;20049;-71
2021/05/18 12:37:42;;;;;;;5.65;3.28;;;20.40;76.30;;;-145.59;100.00;63944.34;5076500;28;20645;-70
2021/05/18 12:40:26;;;;;;;4.32;3.20;;;20.20;76.80;;;-145.59;100.00;63944.34;5075562;28;20063;-71
2021/05/18 12:42:54;;;;;;;6.05;3.63;;;20.20;78.90;;;-145.59;100.00;63944.34;5075601;28;20143;-71
2021/05/18 12:45:26;;;;;;;5.78;2.88;;;20.10;76.80;;;-145.59;100.00;63944.34;5058978;28;20106;-69
2021/05/18 12:47:59;;;;;;;7.25;3.78;;;19.90;78.70;;;-145.59;100.00;63944.34;5076497;28;20055;-71
2021/05/18 12:50:37;;;;;;;8.23;3.10;;;19.90;80.30;;;-145.59;100.00;63944.34;5076583;28;20051;-71
2021/05/18 12:53:04;;;;;;;5.25;3.45;;;19.90;80.70;;;-145.59;100.00;63944.34;5076723;28;20036;-70
2021/05/18 12:55:31;;;;;;;5.35;3.30;;;19.80;78.80;;;-145.59;100.00;63944.34;5075356;28;20039;-70
2021/05/18 12:58:06;;;;;;;8.13;3.42;;;19.60;78.80;;;-145.59;100.00;63944.34;5074995;28;20510;-69
2021/05/18 13:00:41;;;;;;;9.07;3.30;;;19.50;81.30;;;-145.59;100.00;63944.34;5076284;28;20036;-70
2021/05/18 13:03:19;;;;;;;5.85;2.90;;;19.40;80.10;;;-145.59;100.00;63944.34;5075225;28;20536;-70
2021/05/18 13:05:53;;;;;;;5.82;3.00;;;19.30;81.20;;;-145.59;100.00;63944.34;5059019;28;20044;-70
2021/05/18 13:08:34;;;;;;;6.43;2.85;;;19.30;82.10;;;-145.59;100.00;63944.34;5074963;28;20029;-70
2021/05/18 13:13:56;;;;;;;5.75;2.75;;;19.30;81.60;;;-145.59;100.00;63944.34;5076195;28;20032;-71
2021/05/18 13:16:33;;;;;;;8.60;3.28;;;19.30;81.70;;;-145.59;100.00;63944.34;5078471;28;20150;-72
2021/05/18 13:19:07;;;;;;;6.07;2.83;;;19.30;82.90;;;-145.59;100.00;63944.34;5057937;28;20028;-68
2021/05/18 13:21:48;;;;;;;10.50;3.10;;;19.40;82.60;;;-145.59;100.00;63944.34;5074565;28;20060;-72
2021/05/18 13:26:58;;;;;;;7.93;2.67;;;19.20;82.10;;;-145.59;100.00;63944.34;5075307;28;20066;-71
2021/05/18 13:29:24;;;;;;;6.13;2.85;;;19.10;81.30;;;-145.59;100.00;63944.34;5057933;28;20538;-70
2021/05/18 13:31:53;;;;;;;7.28;3.35;;;18.80;80.30;;;-145.59;100.00;63944.34;5057854;28;20449;-70
2021/05/18 13:34:20;;;;;;;8.00;3.47;;;18.60;82.60;;;-145.59;100.00;63944.34;5074734;28;20033;-71
2021/05/18 13:36:48;;;;;;;5.28;3.08;;;18.30;82.60;;;-145.59;100.00;63944.34;5075992;28;20087;-71
2021/05/18 13:39:20;;;;;;;9.10;3.17;;;18.20;85.20;;;-145.59;100.00;63944.34;5074804;28;20031;-72
2021/05/18 13:41:48;;;;;;;6.05;2.75;;;17.90;84.10;;;-145.59;100.00;63944.34;5074298;28;20039;-74
2021/05/18 13:44:14;;;;;;;3.50;2.45;;;17.70;84.50;;;-145.59;100.00;63944.34;5056657;28;20033;-73
2021/05/18 13:46:41;;;;;;;7.22;2.50;;;17.60;86.40;;;-145.59;100.00;63944.34;5074423;28;20035;-76
2021/05/18 13:49:07;;;;;;;8.32;2.78;;;17.40;86.70;;;-145.59;100.00;63944.34;5074102;28;20116;-74
2021/05/18 13:51:33;;;;;;;3.80;2.70;;;17.30;88.50;;;-145.59;100.00;63944.34;5074073;28;20396;-73
2021/05/18 13:53:59;;;;;;;5.45;2.42;;;17.30;87.40;;;-145.59;100.00;63944.34;5074127;28;20123;-75
2021/05/18 13:56:25;;;;;;;7.55;2.50;;;17.10;87.20;;;-145.59;100.00;63944.34;5074044;28;20075;-69
2021/05/18 13:58:53;;;;;;;15.70;3.65;;;17.00;88.40;;;-145.59;100.00;63944.34;5075109;28;20039;-72
2021/05/18 14:01:20;;;;;;;5.18;2.53;;;16.90;89.30;;;-145.59;100.00;63944.34;5057243;28;20032;-71
2021/05/18 14:03:47;;;;;;;4.63;2.40;;;16.80;89.10;;;-145.59;100.00;63944.34;5074058;28;20024;-71
2021/05/18 14:06:14;;;;;;;5.88;2.10;;;16.80;89.40;;;-145.59;100.00;63944.34;5057259;28;20042;-70
2021/05/18 14:08:41;;;;;;;7.38;2.90;;;16.70;89.30;;;-145.59;100.00;63944.34;5074802;28;20040;-71
2021/05/18 14:11:11;;;;;;;6.78;1.55;;;16.60;89.20;;;-145.59;100.00;63944.34;5075206;28;20028;-69
2021/05/18 14:13:41;;;;;;;5.03;1.95;;;16.60;87.70;;;-145.59;100.00;63944.34;5074960;28;20442;-71
2021/05/18 14:16:14;;;;;;;8.20;1.90;;;16.40;88.80;;;-145.59;100.00;63944.34;5073600;28;20021;-71
2021/05/18 14:18:40;;;;;;;4.07;2.47;;;16.20;89.90;;;-145.59;100.00;63944.34;5073616;28;20036;-69
2021/05/18 14:21:07;;;;;;;3.58;1.70;;;16.10;90.00;;;-145.59;100.00;63944.34;5073403;28;20326;-70
2021/05/18 14:26:29;;;;;;;6.45;2.28;;;16.00;90.50;;;-145.59;100.00;63944.34;5073567;28;20040;-69
2021/05/18 14:28:55;;;;;;;8.75;1.98;;;16.00;91.50;;;-145.59;100.00;63944.34;5073136;28;20033;-68
2021/05/18 14:31:21;;;;;;;6.25;2.85;;;16.00;91.50;;;-145.59;100.00;63944.34;5074444;28;20086;-67
2021/05/18 14:33:47;;;;;;;5.20;1.83;;;16.10;91.80;;;-145.59;100.00;63944.34;5073092;28;20044;-70
2021/05/18 14:36:14;;;;;;;5.93;2.97;;;16.00;91.90;;;-145.59;100.00;63944.34;5056414;28;20044;-69
2021/05/18 14:38:43;;;;;;;5.32;2.05;;;16.00;91.10;;;-145.59;100.00;63944.34;5073275;28;20602;-68
2021/05/18 14:44:15;;;;;;;4.70;2.55;;;15.90;90.90;;;-145.59;100.00;63944.34;5073089;28;20060;-69
2021/05/18 14:46:53;;;;;;;4.18;2.58;;;15.90;91.30;;;-145.59;100.00;63944.34;5072845;28;20036;-70
2021/05/18 14:54:55;;;;;;;;;;;15.80;91.80;;;-145.59;100.00;63944.34;5073756;28;20580;-73
2021/05/18 14:57:21;;;;;;;6.18;2.75;;;15.90;91.60;;;-145.59;100.00;63944.34;5088843;28;19916;-72
2021/05/18 14:59:47;;;;;;;6.43;2.60;;;15.80;92.00;;;-145.59;100.00;63944.34;5055947;28;20032;-72
2021/05/18 15:02:13;;;;;;;3.78;2.17;;;15.80;91.70;;;-145.59;100.00;63944.34;5072467;28;20082;-72
2021/05/18 15:04:39;;;;;;;7.63;2.42;;;15.80;91.70;;;-145.59;100.00;63944.34;5072616;28;20032;-72
2021/05/18 15:07:08;;;;;;;4.47;2.45;;;15.80;91.70;;;-145.59;100.00;63944.34;5072620;28;20028;-74
2021/05/18 15:09:38;;;;;;;8.50;2.83;;;15.80;91.20;;;-145.59;100.00;63944.34;5074043;28;20356;-74
2021/05/18 15:12:04;;;;;;;3.08;1.90;;;15.80;91.40;;;-145.59;100.00;63944.34;5072539;28;20119;-71
2021/05/18 15:14:30;;;;;;;4.25;1.90;;;15.70;91.50;;;-145.59;100.00;63944.34;5074305;28;20044;-66
2021/05/18 15:16:56;;;;;;;5.13;1.90;;;15.70;91.40;;;-145.59;100.00;63944.34;5072349;28;20567;-72
2021/05/18 15:19:24;;;;;;;2.35;1.80;;;15.70;91.60;;;-145.59;100.00;63944.34;5072346;28;20097;-71
2021/05/18 15:21:50;;;;;;;4.70;1.67;;;15.80;91.50;;;-145.59;100.00;63944.34;5072410;28;20417;-74
2021/05/18 15:24:16;;;;;;;8.27;2.65;;;15.70;91.40;;;-145.59;100.00;63944.34;5072345;28;20111;-69